UBBB/BAK METAR and TAF weather

Enter ICAO airport designator
Station Type Date Time Source
UBBB METAR 2019/04/23 00:30 UTC NOAA

UBBB 230030Z 32016KT 9999 -SHRA SCT041CB OVC041 09/05 Q1021 R34/290055 R35/290050 NOSIG


Station Type Date Time Source
UBBB Decoded METAR 2019/04/23 00:30 UTC NOAA

Baku / Bine Airport, Azerbaijan (UBBB) 40-27N 050-04E -1M
Apr 22, 2019 - 08:30 PM EDT / 2019.04.23 0030 UTC
Wind: from the NW (320 degrees) at 18 MPH (16 KT):0
Visibility: greater than 7 mile(s):0
Sky conditions: overcast
Weather: light rain showers; Cumulonimbus clouds observed
Temperature: 48 F (9 C)
Dew Point: 41 F (5 C)
Relative Humidity: 75%
Pressure (altimeter): 30.15 in. Hg (1021 hPa)
ob: UBBB 230030Z 32016KT 9999 -SHRA SCT041CB OVC041 09/05 Q1021 R34/290055 R35/290050 NOSIG
cycle: 0

Station Type Date Time Source
UBBB TAF 2019/04/22 18:15 UTC NOAA

TAF TAF UBBB 221713Z 2218/2318 36018G28KT 9999 SCT012 FEW040CB BKN100 TX12/2311Z TN05/2301Z
BECMG 2219/2221 33024G34KT
TEMPO 2221/2310 5000 -SHRA SCT008 BKN020CB OVC020 PROB40
TEMPO 2221/2306 -TSRA BKN020CB

Example: see airport list